Aviation Digital Data Service (ADDS)

Output produced by METARs form (0439 UTC 26 April 2019)
found at http://www.aviationweather.gov/metar/data/
 
METAR text: FMCH 260400Z 22007KT 180V240 9999 FEW020CB SCT023 28/25 Q1011 NOSIG
Conditions at: FMCH (MORONI/HAHAIA IN, KM) observed 0400 UTC 26 April 2019
Temperature: 28.0°C (82°F)
Dewpoint: 25.0°C (77°F) [RH = 84%]
Pressure (altimeter): 29.85 inches Hg (1011.0 mb)
Winds: from the SW (220 degrees) at 8 MPH (7 knots; 3.6 m/s)
Visibility: 6 or more miles (10+ km)
Ceiling: at least 12,000 feet AGL
Clouds: few clouds at 2000 feet AGL
scattered clouds at 2300 feet AGL
Weather: no significant weather observed at this time

METAR text: FMCH 251800Z VRB01KT 9999 FEW020 28/24 Q1011 NOSIG
Conditions at: FMCH (MORONI/HAHAIA IN, KM) observed 1800 UTC 25 April 2019
Temperature: 28.0°C (82°F)
Dewpoint: 24.0°C (75°F) [RH = 79%]
Pressure (altimeter): 29.85 inches Hg (1011.0 mb)
Winds: variable direction winds at 1 MPH (1 knots; 0.5 m/s)
Visibility: 6 or more miles (10+ km)
Ceiling: at least 12,000 feet AGL
Clouds: few clouds at 2000 feet AGL
Weather: no significant weather observed at this time

METAR text: FMCH 251700Z 06004KT 010V160 9999 FEW020TCU BKN060 28/24 Q1011 NOSIG
Conditions at: FMCH (MORONI/HAHAIA IN, KM) observed 1700 UTC 25 April 2019
Temperature: 28.0°C (82°F)
Dewpoint: 24.0°C (75°F) [RH = 79%]
Pressure (altimeter): 29.85 inches Hg (1011.0 mb)
Winds: from the ENE (60 degrees) at 5 MPH (4 knots; 2.1 m/s)
Visibility: 6 or more miles (10+ km)
Ceiling: 6000 feet AGL
Clouds: few clouds at 2000 feet AGL
broken clouds at 6000 feet AGL
Weather: no significant weather observed at this time

METAR text: FMCH 251600Z 08004KT 9999 SCT020TCU BKN055 27/24 Q1010 NOSIG
Conditions at: FMCH (MORONI/HAHAIA IN, KM) observed 1600 UTC 25 April 2019
Temperature: 27.0°C (81°F)
Dewpoint: 24.0°C (75°F) [RH = 84%]
Pressure (altimeter): 29.82 inches Hg (1010.0 mb)
Winds: from the E (80 degrees) at 5 MPH (4 knots; 2.1 m/s)
Visibility: 6 or more miles (10+ km)
Ceiling: 5500 feet AGL
Clouds: scattered clouds at 2000 feet AGL
broken clouds at 5500 feet AGL
Weather: no significant weather observed at this time

METAR text: FMCH 251500Z 06004KT 9999 FEW020CB BKN070 28/24 Q1010 NOSIG
Conditions at: FMCH (MORONI/HAHAIA IN, KM) observed 1500 UTC 25 April 2019
Temperature: 28.0°C (82°F)
Dewpoint: 24.0°C (75°F) [RH = 79%]
Pressure (altimeter): 29.82 inches Hg (1010.0 mb)
Winds: from the ENE (60 degrees) at 5 MPH (4 knots; 2.1 m/s)
Visibility: 6 or more miles (10+ km)
Ceiling: 7000 feet AGL
Clouds: few clouds at 2000 feet AGL
broken clouds at 7000 feet AGL
Weather: no significant weather observed at this time

METAR text: FMCH 251300Z 02010KT 350V050 9999 FEW020CB BKN070 30/25 Q1009 NOSIG
Conditions at: FMCH (MORONI/HAHAIA IN, KM) observed 1300 UTC 25 April 2019
Temperature: 30.0°C (86°F)
Dewpoint: 25.0°C (77°F) [RH = 75%]
Pressure (altimeter): 29.79 inches Hg (1009.0 mb)
Winds: from the NNE (20 degrees) at 12 MPH (10 knots; 5.1 m/s)
Visibility: 6 or more miles (10+ km)
Ceiling: 7000 feet AGL
Clouds: few clouds at 2000 feet AGL
broken clouds at 7000 feet AGL
Weather: no significant weather observed at this time

METAR text: FMCH 251200Z 01011KT 9999 FEW020CB OVC070 31/24 Q1010 NOSIG
Conditions at: FMCH (MORONI/HAHAIA IN, KM) observed 1200 UTC 25 April 2019
Temperature: 31.0°C (88°F)
Dewpoint: 24.0°C (75°F) [RH = 66%]
Pressure (altimeter): 29.82 inches Hg (1010.0 mb)
Winds: from the N (10 degrees) at 13 MPH (11 knots; 5.7 m/s)
Visibility: 6 or more miles (10+ km)
Ceiling: 7000 feet AGL
Clouds: few clouds at 2000 feet AGL
overcast cloud deck at 7000 feet AGL
Weather: no significant weather observed at this time

METAR text: FMCH 251100Z 01012KT 9999 FEW020CB BKN080 31/24 Q1009 NOSIG
Conditions at: FMCH (MORONI/HAHAIA IN, KM) observed 1100 UTC 25 April 2019
Temperature: 31.0°C (88°F)
Dewpoint: 24.0°C (75°F) [RH = 66%]
Pressure (altimeter): 29.79 inches Hg (1009.0 mb)
Winds: from the N (10 degrees) at 14 MPH (12 knots; 6.2 m/s)
Visibility: 6 or more miles (10+ km)
Ceiling: 8000 feet AGL
Clouds: few clouds at 2000 feet AGL
broken clouds at 8000 feet AGL
Weather: no significant weather observed at this time

METAR text: FMCH 251000Z 01012KT 9999 FEW020 BKN080 32/24 Q1009 NOSIG
Conditions at: FMCH (MORONI/HAHAIA IN, KM) observed 1000 UTC 25 April 2019
Temperature: 32.0°C (90°F)
Dewpoint: 24.0°C (75°F) [RH = 63%]
Pressure (altimeter): 29.79 inches Hg (1009.0 mb)
Winds: from the N (10 degrees) at 14 MPH (12 knots; 6.2 m/s)
Visibility: 6 or more miles (10+ km)
Ceiling: 8000 feet AGL
Clouds: few clouds at 2000 feet AGL
broken clouds at 8000 feet AGL
Weather: no significant weather observed at this time

METAR text: FMCH 250900Z 05014KT 9999 FEW020CB BKN080 32/23 Q1009 NOSIG
Conditions at: FMCH (MORONI/HAHAIA IN, KM) observed 0900 UTC 25 April 2019
Temperature: 32.0°C (90°F)
Dewpoint: 23.0°C (73°F) [RH = 59%]
Pressure (altimeter): 29.79 inches Hg (1009.0 mb)
Winds: from the NE (50 degrees) at 16 MPH (14 knots; 7.2 m/s)
Visibility: 6 or more miles (10+ km)
Ceiling: 8000 feet AGL
Clouds: few clouds at 2000 feet AGL
broken clouds at 8000 feet AGL
Weather: no significant weather observed at this time

METAR text: FMCH 250800Z 04016KT 9999 SCT020CB SCT030 OVC080 30/24 Q1011 TEMPO 4000M +TSRA
Conditions at: FMCH (MORONI/HAHAIA IN, KM) observed 0800 UTC 25 April 2019
Temperature: 30.0°C (86°F)
Dewpoint: 24.0°C (75°F) [RH = 70%]
Pressure (altimeter): 29.85 inches Hg (1011.0 mb)
Winds: from the NE (40 degrees) at 18 MPH (16 knots; 8.2 m/s)
Visibility: 6 or more miles (10+ km)
Ceiling: 8000 feet AGL
Clouds: scattered clouds at 2000 feet AGL
scattered clouds at 3000 feet AGL
overcast cloud deck at 8000 feet AGL
Weather: no significant weather observed at this time

METAR text: FMCH 250700Z 04015KT 9999 SCT020CB SCT030 OVC080 28/24 Q1011 TEMPO 4000 TSRA
Conditions at: FMCH (MORONI/HAHAIA IN, KM) observed 0700 UTC 25 April 2019
Temperature: 28.0°C (82°F)
Dewpoint: 24.0°C (75°F) [RH = 79%]
Pressure (altimeter): 29.85 inches Hg (1011.0 mb)
Winds: from the NE (40 degrees) at 17 MPH (15 knots; 7.7 m/s)
Visibility: 6 or more miles (10+ km)
Ceiling: 8000 feet AGL
Clouds: scattered clouds at 2000 feet AGL
scattered clouds at 3000 feet AGL
overcast cloud deck at 8000 feet AGL
Weather: no significant weather observed at this time

METAR text: FMCH 250500Z 04020G31KT 9999 SCT020CB OVC030 28/24 Q1009 TEMPO 4000 TSSHRA
Conditions at: FMCH (MORONI/HAHAIA IN, KM) observed 0500 UTC 25 April 2019
Temperature: 28.0°C (82°F)
Dewpoint: 24.0°C (75°F) [RH = 79%]
Pressure (altimeter): 29.79 inches Hg (1009.0 mb)
Winds: from the NE (40 degrees) at 23 MPH (20 knots; 10.3 m/s)
gusting to 36 MPH (31 knots; 15.9 m/s)
Visibility: 6 or more miles (10+ km)
Ceiling: 3000 feet AGL
Clouds: scattered clouds at 2000 feet AGL
overcast cloud deck at 3000 feet AGL
Weather: no significant weather observed at this time

METAR text: FMCH 250300Z 04024G37KT 8000 -TSSHRA SCT018CB BKN024 OVC030 27/23 Q1006 TEMPO 3000 +TSSHRA
Conditions at: FMCH (MORONI/HAHAIA IN, KM) observed 0300 UTC 25 April 2019
Temperature: 27.0°C (81°F)
Dewpoint: 23.0°C (73°F) [RH = 79%]
Pressure (altimeter): 29.70 inches Hg (1006.0 mb)
Winds: from the NE (40 degrees) at 28 MPH (24 knots; 12.3 m/s)
gusting to 43 MPH (37 knots; 19.0 m/s)
Visibility: 5 miles ( 8 km)
Ceiling: 2400 feet AGL
Clouds: scattered clouds at 1800 feet AGL
broken clouds at 2400 feet AGL
overcast cloud deck at 3000 feet AGL
Weather: SHRA TS  (rain showers, thunderstorm)

METAR text: FMCH 242200Z 08031G50KT 5000 TSRA SCT018CB BKN025 OVC030 27/25 Q0998 TEMPO 3000 +TSRA
Conditions at: FMCH (MORONI/HAHAIA IN, KM) observed 2200 UTC 24 April 2019
Temperature: 27.0°C (81°F)
Dewpoint: 25.0°C (77°F) [RH = 89%]
Pressure (altimeter): 29.47 inches Hg (998.0 mb)
Winds: from the E (80 degrees) at 36 MPH (31 knots; 15.9 m/s)
gusting to 57 MPH (50 knots; 25.7 m/s)
Visibility: 3 miles ( 5 km)
Ceiling: 2500 feet AGL
Clouds: scattered clouds at 1800 feet AGL
broken clouds at 2500 feet AGL
overcast cloud deck at 3000 feet AGL
Weather: TSRA  (rain associated with thunderstorm(s))

METAR text: FMCH 242100Z 11043G65KT 5000 TSRA SCT018CB BKN025 OVC030 27/25 Q0998 TEMPO 3000 +TSRA
Conditions at: FMCH (MORONI/HAHAIA IN, KM) observed 2100 UTC 24 April 2019
Temperature: 27.0°C (81°F)
Dewpoint: 25.0°C (77°F) [RH = 89%]
Pressure (altimeter): 29.47 inches Hg (998.0 mb)
Winds: from the ESE (110 degrees) at 49 MPH (43 knots; 22.1 m/s)
gusting to 75 MPH (65 knots; 33.4 m/s)
Visibility: 3 miles ( 5 km)
Ceiling: 2500 feet AGL
Clouds: scattered clouds at 1800 feet AGL
broken clouds at 2500 feet AGL
overcast cloud deck at 3000 feet AGL
Weather: TSRA  (rain associated with thunderstorm(s))

METAR text: FMCH 242000Z 13041G56KT 5000 TSRA SCT018CB BKN025 OVC030 26/25 Q0998 TEMPO 3000 +TSRA
Conditions at: FMCH (MORONI/HAHAIA IN, KM) observed 2000 UTC 24 April 2019
Temperature: 26.0°C (79°F)
Dewpoint: 25.0°C (77°F) [RH = 94%]
Pressure (altimeter): 29.47 inches Hg (998.0 mb)
Winds: from the SE (130 degrees) at 47 MPH (41 knots; 21.1 m/s)
gusting to 64 MPH (56 knots; 28.8 m/s)
Visibility: 3 miles ( 5 km)
Ceiling: 2500 feet AGL
Clouds: scattered clouds at 1800 feet AGL
broken clouds at 2500 feet AGL
overcast cloud deck at 3000 feet AGL
Weather: TSRA  (rain associated with thunderstorm(s))

METAR text: FMCH 241700Z 14029G48KT 6000 TSRA SCT018CB BKN025 OVC030 27/25 Q1000 TEMPO 3000 TSRA
Conditions at: FMCH (MORONI/HAHAIA IN, KM) observed 1700 UTC 24 April 2019
Temperature: 27.0°C (81°F)
Dewpoint: 25.0°C (77°F) [RH = 89%]
Pressure (altimeter): 29.53 inches Hg (1000.0 mb)
Winds: from the SE (140 degrees) at 33 MPH (29 knots; 14.9 m/s)
gusting to 55 MPH (48 knots; 24.7 m/s)
Visibility: 4 miles ( 6 km)
Ceiling: 2500 feet AGL
Clouds: scattered clouds at 1800 feet AGL
broken clouds at 2500 feet AGL
overcast cloud deck at 3000 feet AGL
Weather: TSRA  (rain associated with thunderstorm(s))

Forecast for: FMCH (MORONI/HAHAIA IN, KM)
Text: TAF FMCH 251700Z 2518/2624 08005KT 9999 FEW020TCU SCT030
Forecast period: 1800 UTC 25 April 2019 to 0500 UTC 26 April 2019
Forecast type: FROM: standard forecast or significant change
Winds: from the E (80 degrees) at 6 MPH (5 knots; 2.6 m/s)
Visibility: 6 or more miles 10+ km)
Ceiling: at least 12,000 feet AGL
Clouds: few clouds at 2000 feet AGL
scattered clouds at 3000 feet AGL
Weather: no significant weather forecast for this period
Text: BECMG 2605/2607 32013KT
Forecast period: 0500 to 1600 UTC 26 April 2019
Forecast type: BECOMING: Conditions expected to become as follows by 0700 UTC 26 April 2019
Winds: from the NW (320 degrees) at 15 MPH (13 knots; 6.7 m/s)
Visibility: 6 or more miles 10+ km)
Ceiling: at least 12,000 feet AGL
Clouds: few clouds at 2000 feet AGL
scattered clouds at 3000 feet AGL
Weather: no significant weather forecast for this period
Text: BECMG 2616/2618 06010KT
Forecast period: 1600 UTC 26 April 2019 to 0000 UTC 27 April 2019
Forecast type: BECOMING: Conditions expected to become as follows by 1800 UTC 26 April 2019
Winds: from the ENE (60 degrees) at 12 MPH (10 knots; 5.1 m/s)
Visibility: 6 or more miles 10+ km)
Ceiling: at least 12,000 feet AGL
Clouds: few clouds at 2000 feet AGL
scattered clouds at 3000 feet AGL
Weather: no significant weather forecast for this period